• Join FlightAware (Why Join?)
  • Login
  • US Flag 
05:02AM EDT


 

Airport Tracker/Info


-or-


 

Live Flight TrackerFlight Track Log ✈ SWA1521 ✈ 30-Apr-2013 ✈ KSEA - KSMF

Flight Track Log - Related Links

Times and Time Zones

All times are in EDT time to prevent confusion due to time zone crossing. See the SWA1521 flight status page for this flight to view local times or setup timezone preferences in your user account.

Time Position Orientation Groundspeed Altitude Reporting Facility
EDT Latitude Longitude Course Direction KTS MPH feet Rate Location/Type
09:16PM 47.4689 -122.3114 North 156 180 1,300  Level Seattle Center
09:17PM 47.4967 -122.3103 North 162 186 2,400 2,400 Climbing Seattle Center
09:18PM 47.5581 -122.3097 360° North 207 238 5,400 3,540 Climbing Seattle Center
09:19PM 47.5986 -122.2567 41° Northeast 231 266 9,600 3,180 Climbing Seattle Center
09:20PM 47.5847 -122.1525 101° East 276 318 11,900 2,400 Climbing Seattle Center
09:21PM 47.4903 -122.1317 172° South 350 403 14,600 2,820 Climbing Seattle Center
09:22PM 47.3867 -122.1169 175° South 375 432 17,700 2,640 Climbing Seattle Center
09:23PM 47.2739 -122.1097 178° South 400 460 20,000 2,160 Climbing Seattle Center
09:24PM 47.1553 -122.0994 177° South 429 494 22,200 2,100 Climbing Seattle Center
09:25PM 47.0269 -122.0883 177° South 461 531 24,300 1,920 Climbing Seattle Center
09:26PM 46.8922 -122.0789 177° South 486 559 26,100 1,800 Climbing Seattle Center
09:27PM 46.7508 -122.0683 177° South 509 586 28,000 1,800 Climbing Seattle Center
09:28PM 46.6069 -122.0564 177° South 522 601 29,800 1,620 Climbing Seattle Center
09:29PM 46.4592 -122.0450 177° South 534 615 31,300 1,560 Climbing Seattle Center
09:30PM 46.3078 -122.0333 177° South 547 629 33,000 1,860 Climbing Seattle Center
09:31PM 46.1281 -122.0181 177° South 545 627 35,200 1,920 Climbing Seattle Center
09:32PM 45.9800 -122.0056 177° South 536 617 36,900 840 Climbing Seattle Center
09:33PM 45.8336 -121.9953 177° South 528 608 36,900  Level Seattle Center
09:34PM 45.6867 -121.9833 177° South 528 608 36,900  Level Seattle Center
09:35PM 45.5400 -121.9719 177° South 528 608 36,900  Level Seattle Center
09:36PM 45.3928 -121.9600 177° South 528 608 36,900  Level Seattle Center
09:37PM 45.2478 -121.9497 177° South 525 604 37,000  Climbing Seattle Center
09:38PM 45.1017 -121.9381 177° South 524 603 36,900 -60 Descending Seattle Center
09:39PM 44.9553 -121.9278 177° South 525 604 36,900  Level Seattle Center
09:40PM 44.8142 -121.9150 176° South 511 588 37,000  Climbing Seattle Center
09:41PM 44.6553 -121.9047 177° South 512 589 37,000  Level Seattle Center
09:43PM 44.5114 -121.8933 177° South 519 597 37,000  Level Seattle Center
09:44PM 44.3661 -121.8831 177° South 524 603 37,000  Level Seattle Center
09:45PM 44.2211 -121.8731 177° South 525 604 37,000  Level Seattle Center
09:46PM 44.0781 -121.8619 177° South 519 597 37,000  Level Seattle Center
09:47PM 43.9344 -121.8506 177° South 519 597 37,000  Level Seattle Center
09:48PM 43.7869 -121.8414 177° South 517 595 37,000  Level Seattle Center
09:49PM 43.6450 -121.8308 177° South 514 592 37,000  Level Seattle Center
09:50PM 43.5036 -121.8200 177° South 509 586 37,000  Level Seattle Center
09:51PM 43.3628 -121.8089 177° South 507 583 37,000  Level Seattle Center
09:52PM 43.2231 -121.7994 177° South 504 580 37,000  Level Seattle Center
09:53PM 43.0839 -121.7903 177° South 502 578 37,000  Level Seattle Center
09:54PM 42.9450 -121.7842 178° South 501 577 37,000  Level Seattle Center
09:55PM 42.8058 -121.7747 177° South 501 577 37,000  Level Seattle Center
09:56PM 42.6658 -121.7642 177° South 503 579 37,000  Level Seattle Center
09:57PM 42.5264 -121.7550 177° South 499 574 37,000  Level Seattle Center
09:58PM 42.3872 -121.7450 177° South 498 573 37,000  Level Seattle Center
09:59PM 42.2186 -121.7322 177° South 501 577 37,000  Level Seattle Center
10:00PM 42.0781 -121.7278 179° South 496 571 37,000  Level Seattle Center
10:01PM 41.9392 -121.7269 180° South 489 563 37,000  Level Seattle Center
10:02PM 41.8025 -121.7267 180° South 485 558 37,000  Level Seattle Center
10:03PM 41.6658 -121.7247 179° South 487 560 37,000  Level Seattle Center
10:04PM 41.5311 -121.7250 180° South 484 557 37,000  Level Seattle Center
10:05PM 41.3953 -121.7239 180° South 486 559 37,000  Level Seattle Center
10:06PM 41.2597 -121.7228 180° South 486 559 37,000  Level Seattle Center
10:07PM 41.1242 -121.7186 179° South 485 558 37,000  Level Seattle Center
10:08PM 40.9972 -121.7075 176° South 486 559 37,000  Level Oakland Center
10:09PM 40.8617 -121.6994 177° South 487 560 37,000  Level Oakland Center
10:10PM 40.7256 -121.6917 178° South 486 559 37,000 -720 Level Oakland Center
10:12PM 40.4547 -121.6792 178° South 482 555 34,900 -1,680 Descending Seattle Center
10:13PM 40.3181 -121.6700 177° South 486 559 31,900 -2,640 Descending Seattle Center
10:14PM 40.1811 -121.6642 178° South 487 560 29,600 -2,160 Descending Seattle Center
10:15PM 40.0506 -121.6539 177° South 475 547 27,600 -2,040 Descending Oakland Center
10:16PM 39.9244 -121.6475 178° South 457 526 25,600 -2,160 Descending Oakland Center
10:18PM 39.6656 -121.6342 178° South 421 484 21,100 -2,280 Descending Oakland Center
10:19PM 39.5525 -121.6275 177° South 412 474 18,700 -2,220 Descending Oakland Center
10:20PM 39.4406 -121.6208 177° South 404 465 16,600 -2,040 Descending Oakland Center
10:21PM 39.3319 -121.6294 184° South 392 451 14,600 -1,800 Descending Oakland Center
10:22PM 39.2278 -121.6386 184° South 379 436 13,000 -1,740 Descending Oakland Center
10:23PM 39.1281 -121.6475 184° South 363 418 11,100 -1,380 Descending Oakland Center
10:24PM 39.0353 -121.6606 186° South 341 392 10,200 -1,200 Descending Oakland Center
10:25PM 38.9506 -121.6747 187° South 316 364 8,700 -1,800 Descending Oakland Center
10:26PM 38.8678 -121.6842 185° South 308 354 6,600 -1,920 Descending Oakland Center
10:27PM 38.7858 -121.6925 185° South 300 345 4,800 -1,560 Descending Oakland Center
10:28PM 38.7042 -121.6933 180° South 298 343 3,500 -840 Descending Oakland Center
10:29PM 38.6314 -121.6856 175° South 284 327 3,100 -600 Descending Oakland Center
10:30PM 38.5700 -121.6375 149° Southeast 239 275 2,300 -840 Descending Oakland Center
10:31PM 38.5833 -121.6000 66° East 137 158 1,600 -540 Descending Northern Cal TRACON
10:32PM 38.6167 -121.6000 360° North 106 122 1,400 -480 Descending Northern Cal TRACON
10:33PM 38.6500 -121.6000 360° North 112 129 700 -600 Descending Northern Cal TRACON
10:34PM 38.6833 -121.6000 360° North 124 143 200 -540 Descending Northern Cal TRACON